createdAt,value
2022-08-21T00:02:15.272Z,22.03
2022-08-21T00:04:48.402Z,21.97
2022-08-21T00:07:25.784Z,22.17
2022-08-21T00:09:54.362Z,22.22
2022-08-21T00:12:22.342Z,22.03
2022-08-21T00:14:49.848Z,21.96
2022-08-21T00:17:18.235Z,21.69
2022-08-21T00:19:45.676Z,21.95
2022-08-21T00:22:13.151Z,21.80
2022-08-21T00:24:40.949Z,21.81
2022-08-21T00:27:08.935Z,22.23
2022-08-21T00:29:36.421Z,21.88
2022-08-21T00:32:04.379Z,21.49
2022-08-21T00:34:31.894Z,21.77
2022-08-21T00:36:59.373Z,21.63
2022-08-21T00:39:27.161Z,21.49
2022-08-21T00:41:54.616Z,21.83
2022-08-21T00:44:22.097Z,21.72
2022-08-21T00:46:49.879Z,21.85
2022-08-21T00:49:17.366Z,21.97
2022-08-21T00:51:49.956Z,21.83
2022-08-21T00:54:20.103Z,21.99
2022-08-21T00:56:52.837Z,21.66
2022-08-21T00:59:21.548Z,21.99
2022-08-21T01:01:50.623Z,21.88
2022-08-21T01:04:18.343Z,21.46
2022-08-21T01:06:46.701Z,21.77
2022-08-21T01:09:15.098Z,21.76
2022-08-21T01:11:44.093Z,21.73
2022-08-21T01:14:13.570Z,21.57
2022-08-21T01:16:46.567Z,21.22
2022-08-21T01:19:15.148Z,21.63
2022-08-21T01:21:43.923Z,21.64
2022-08-21T01:24:11.999Z,21.72
2022-08-21T01:26:40.340Z,21.51
2022-08-21T01:29:17.726Z,21.52
2022-08-21T01:31:48.053Z,21.64
2022-08-21T01:34:17.000Z,21.69
2022-08-21T01:36:46.427Z,21.83
2022-08-21T01:39:14.074Z,21.89
2022-08-21T01:41:41.734Z,21.76
2022-08-21T01:44:09.696Z,21.64
2022-08-21T01:46:37.179Z,21.73
2022-08-21T01:49:06.063Z,21.68
2022-08-21T01:51:34.146Z,21.73
2022-08-21T01:54:01.595Z,21.50
2022-08-21T01:56:29.133Z,21.51
2022-08-21T01:58:56.932Z,21.48
2022-08-21T02:01:24.454Z,21.91
2022-08-21T02:03:52.342Z,21.50
2022-08-21T02:06:19.824Z,21.45
2022-08-21T02:08:47.815Z,21.73
2022-08-21T02:11:15.739Z,21.68
2022-08-21T02:13:43.344Z,22.10
2022-08-21T02:16:11.166Z,21.84
2022-08-21T02:18:41.159Z,21.86
2022-08-21T02:21:08.759Z,21.88
2022-08-21T02:23:36.480Z,21.81
2022-08-21T02:26:07.770Z,21.69
2022-08-21T02:28:36.082Z,22.12
2022-08-21T02:31:04.173Z,21.73
2022-08-21T02:33:31.740Z,21.69
2022-08-21T02:35:59.834Z,22.03
2022-08-21T02:38:30.577Z,21.69
2022-08-21T02:40:59.005Z,21.84
2022-08-21T02:43:28.301Z,22.00
2022-08-21T02:45:57.623Z,21.76
2022-08-21T02:48:28.383Z,21.77
2022-08-21T02:51:05.254Z,21.76
2022-08-21T02:53:33.086Z,21.73
2022-08-21T02:56:02.808Z,21.49
2022-08-21T02:58:36.989Z,21.13
2022-08-21T03:01:05.014Z,20.97
2022-08-21T03:03:32.543Z,21.27
2022-08-21T03:06:00.029Z,21.43
2022-08-21T03:08:28.046Z,21.40
2022-08-21T03:10:55.641Z,21.93
2022-08-21T03:13:23.592Z,21.79
2022-08-21T03:15:51.604Z,21.69
2022-08-21T03:18:19.317Z,21.58
2022-08-21T03:20:49.023Z,21.67
2022-08-21T03:23:18.589Z,21.37
2022-08-21T03:25:48.592Z,21.75
2022-08-21T03:28:22.466Z,21.65
2022-08-21T03:30:52.026Z,21.64
2022-08-21T03:33:23.170Z,21.76
2022-08-21T03:36:20.763Z,21.87
2022-08-21T03:38:48.232Z,21.52
2022-08-21T03:41:16.127Z,21.42
2022-08-21T03:43:43.579Z,21.72
2022-08-21T03:46:11.037Z,21.38
2022-08-21T03:48:39.812Z,21.63
2022-08-21T03:51:08.161Z,21.45
2022-08-21T03:53:36.211Z,21.66
2022-08-21T03:56:04.603Z,21.33
2022-08-21T03:58:32.206Z,21.38
2022-08-21T04:01:01.168Z,21.49
2022-08-21T04:03:29.185Z,21.62
2022-08-21T04:05:57.028Z,21.89
2022-08-21T04:08:24.867Z,21.96
2022-08-21T04:10:55.562Z,21.69
2022-08-21T04:13:23.067Z,21.75
2022-08-21T04:15:50.570Z,21.09
2022-08-21T04:18:18.510Z,21.62
2022-08-21T04:20:50.286Z,21.42
2022-08-21T04:23:23.572Z,21.46
2022-08-21T04:25:53.527Z,21.64
2022-08-21T04:28:23.286Z,21.79
2022-08-21T04:30:52.997Z,21.41
2022-08-21T04:33:22.537Z,21.69
2022-08-21T04:35:51.292Z,21.69
2022-08-21T04:38:19.431Z,22.18
2022-08-21T04:40:47.436Z,21.88
2022-08-21T04:43:15.082Z,21.91
2022-08-21T04:45:45.312Z,21.82
2022-08-21T04:48:15.855Z,21.82
2022-08-21T04:50:50.773Z,22.03
2022-08-21T04:53:28.832Z,22.28
2022-08-21T04:55:57.952Z,21.62
2022-08-21T04:58:27.201Z,21.75
2022-08-21T05:00:56.179Z,21.78
2022-08-21T05:03:23.833Z,22.03
2022-08-21T05:05:51.674Z,21.85
2022-08-21T05:08:20.933Z,21.62
2022-08-21T05:10:48.772Z,21.59
2022-08-21T05:13:17.005Z,21.95
2022-08-21T05:15:44.494Z,21.85
2022-08-21T05:18:12.060Z,21.83
2022-08-21T05:20:40.388Z,21.75
2022-08-21T05:23:10.000Z,21.87
2022-08-21T05:25:38.352Z,21.77
2022-08-21T05:28:07.379Z,21.31
2022-08-21T05:30:36.612Z,21.96
2022-08-21T05:33:05.739Z,21.59
2022-08-21T05:35:34.327Z,21.72
2022-08-21T05:38:02.157Z,21.95
2022-08-21T05:40:29.857Z,22.15
2022-08-21T05:42:58.388Z,22.21
2022-08-21T05:45:42.641Z,21.91
2022-08-21T05:48:20.162Z,21.73
2022-08-21T05:50:48.947Z,21.96
2022-08-21T05:53:18.385Z,22.21
2022-08-21T05:55:46.955Z,21.84
2022-08-21T05:58:17.169Z,21.99
2022-08-21T06:00:47.709Z,22.20
2022-08-21T06:03:24.999Z,22.00
2022-08-21T06:05:53.805Z,21.70
2022-08-21T06:08:22.424Z,21.80
2022-08-21T06:10:51.107Z,22.07
2022-08-21T06:13:20.714Z,21.66
2022-08-21T06:15:48.775Z,21.44
2022-08-21T06:18:17.161Z,21.45
2022-08-21T06:20:45.376Z,21.52
2022-08-21T06:23:13.884Z,21.37
2022-08-21T06:25:41.437Z,21.70
2022-08-21T06:28:10.887Z,21.64
2022-08-21T06:30:40.219Z,21.69
2022-08-21T06:33:08.060Z,21.45
2022-08-21T06:35:36.069Z,21.70
2022-08-21T06:38:04.302Z,21.33
2022-08-21T06:40:34.918Z,21.45
2022-08-21T06:43:08.465Z,21.30
2022-08-21T06:45:37.182Z,21.54
2022-08-21T06:48:05.214Z,21.73
2022-08-21T06:50:32.654Z,21.44
2022-08-21T06:53:12.229Z,21.37
2022-08-21T06:55:40.712Z,21.76
2022-08-21T06:58:08.870Z,21.97
2022-08-21T07:00:38.071Z,21.76
2022-08-21T07:03:05.520Z,21.75
2022-08-21T07:05:33.331Z,21.67
2022-08-21T07:08:01.212Z,22.14
2022-08-21T07:10:29.082Z,22.08
2022-08-21T07:13:01.281Z,22.10
2022-08-21T07:15:30.948Z,22.12
2022-08-21T07:18:02.416Z,22.12
2022-08-21T07:20:31.370Z,22.11
2022-08-21T07:23:06.700Z,22.04
2022-08-21T07:25:36.485Z,21.90
2022-08-21T07:28:04.330Z,21.99
2022-08-21T07:30:32.566Z,22.11
2022-08-21T07:33:00.317Z,22.30
2022-08-21T07:35:29.100Z,22.32
2022-08-21T07:37:56.682Z,22.49
2022-08-21T07:40:24.405Z,22.23
2022-08-21T07:42:52.905Z,22.33
2022-08-21T07:45:22.871Z,22.16
2022-08-21T07:47:54.157Z,22.79
2022-08-21T07:50:25.363Z,22.58
2022-08-21T07:52:53.614Z,22.60
2022-08-21T07:55:22.701Z,22.75
2022-08-21T07:57:50.973Z,22.64
2022-08-21T08:00:22.402Z,22.76
2022-08-21T08:02:51.928Z,22.96
2022-08-21T08:05:23.717Z,22.82
2022-08-21T08:07:51.605Z,23.16
2022-08-21T08:10:20.416Z,23.18
2022-08-21T08:12:48.642Z,23.38
2022-08-21T08:15:20.335Z,23.34
2022-08-21T08:17:49.281Z,23.17
2022-08-21T08:20:19.255Z,23.41
2022-08-21T08:22:50.234Z,23.58
2022-08-21T08:25:19.204Z,23.47
2022-08-21T08:27:46.900Z,23.50
2022-08-21T08:30:15.596Z,23.48
2022-08-21T08:32:43.724Z,23.52
2022-08-21T08:35:12.394Z,23.59
2022-08-21T08:37:42.619Z,23.46
2022-08-21T08:40:16.029Z,23.29
2022-08-21T08:42:43.760Z,23.61
2022-08-21T08:45:22.951Z,23.61
2022-08-21T08:47:58.805Z,23.55
2022-08-21T08:50:50.209Z,23.59
2022-08-21T08:53:28.669Z,24.06
2022-08-21T08:55:56.893Z,23.75
2022-08-21T08:58:28.002Z,24.08
2022-08-21T09:00:56.309Z,23.78
2022-08-21T09:03:25.338Z,24.39
2022-08-21T09:06:08.392Z,23.99
2022-08-21T09:08:35.975Z,24.26
2022-08-21T09:11:24.898Z,23.79
2022-08-21T09:13:55.603Z,24.40
2022-08-21T09:16:32.799Z,24.15
2022-08-21T09:19:24.906Z,23.83
2022-08-21T09:22:17.326Z,24.11
2022-08-21T09:24:56.302Z,23.82
2022-08-21T09:27:23.812Z,23.76
2022-08-21T09:29:55.233Z,24.15
2022-08-21T09:32:36.665Z,24.03
2022-08-21T09:35:05.679Z,23.68
2022-08-21T09:37:36.766Z,24.07
2022-08-21T09:40:31.611Z,24.07
2022-08-21T09:43:28.103Z,24.35
2022-08-21T09:46:13.165Z,24.03
2022-08-21T09:48:44.318Z,24.15
2022-08-21T09:51:15.933Z,24.08
2022-08-21T09:53:47.217Z,24.27
2022-08-21T09:56:41.649Z,24.23
2022-08-21T09:59:20.263Z,23.73
2022-08-21T10:01:51.669Z,24.53
2022-08-21T10:04:28.016Z,24.33
2022-08-21T10:06:58.177Z,24.69
2022-08-21T10:09:26.420Z,24.55
2022-08-21T10:12:01.921Z,24.77
2022-08-21T10:14:49.052Z,24.95
2022-08-21T10:17:30.364Z,24.60
2022-08-21T10:20:13.221Z,24.60
2022-08-21T10:22:55.844Z,24.66
2022-08-21T10:25:37.466Z,24.05
2022-08-21T10:28:13.820Z,24.29
2022-08-21T10:30:59.067Z,24.57
2022-08-21T10:33:44.272Z,24.79
2022-08-21T10:36:34.985Z,25.14
2022-08-21T10:39:35.777Z,25.31
2022-08-21T10:42:14.528Z,25.14
2022-08-21T10:44:50.565Z,24.89
2022-08-21T10:47:29.267Z,24.98
2022-08-21T10:50:09.314Z,25.38
2022-08-21T10:53:00.955Z,25.59
2022-08-21T10:55:36.889Z,25.30
2022-08-21T10:58:23.194Z,25.37
2022-08-21T11:00:54.827Z,25.26
2022-08-21T11:03:40.606Z,25.79
2022-08-21T11:06:21.619Z,25.58
2022-08-21T11:09:00.744Z,25.65
2022-08-21T11:11:47.039Z,25.94
2022-08-21T11:14:50.471Z,25.91
2022-08-21T11:17:25.193Z,26.01
2022-08-21T11:19:56.098Z,26.07
2022-08-21T11:22:36.963Z,25.86
2022-08-21T11:25:24.786Z,25.82
2022-08-21T11:28:00.589Z,25.99
2022-08-21T11:30:42.168Z,26.11
2022-08-21T11:33:20.237Z,26.04
2022-08-21T11:36:05.358Z,26.02
2022-08-21T11:38:43.101Z,25.79
2022-08-21T11:41:30.426Z,25.79
2022-08-21T11:44:24.236Z,26.08
2022-08-21T11:47:18.416Z,26.02
2022-08-21T11:50:29.887Z,25.67
2022-08-21T11:53:22.401Z,25.96
2022-08-21T11:55:59.200Z,25.87
2022-08-21T11:58:32.091Z,26.00
2022-08-21T12:01:05.234Z,26.10
2022-08-21T12:03:37.516Z,26.14
2022-08-21T12:06:11.504Z,25.83
2022-08-21T12:08:41.924Z,25.69
2022-08-21T12:11:19.489Z,25.27
2022-08-21T12:14:01.444Z,25.83
2022-08-21T12:16:34.404Z,25.93
2022-08-21T12:19:09.983Z,25.54
2022-08-21T12:21:56.447Z,25.95
2022-08-21T12:24:47.562Z,25.62
2022-08-21T12:27:27.501Z,25.34
2022-08-21T12:30:04.494Z,25.33
2022-08-21T12:32:45.724Z,25.23
2022-08-21T12:35:25.100Z,25.23
2022-08-21T12:38:18.443Z,24.97
2022-08-21T12:41:01.924Z,25.03
2022-08-21T12:43:41.127Z,25.20
2022-08-21T12:46:19.483Z,25.21
2022-08-21T12:48:55.803Z,25.46
2022-08-21T12:51:52.388Z,24.68
2022-08-21T12:54:33.093Z,24.60
2022-08-21T12:57:03.129Z,25.16
2022-08-21T12:59:31.499Z,25.17
2022-08-21T13:02:01.658Z,25.26
2022-08-21T13:04:41.152Z,25.16
2022-08-21T13:07:15.253Z,25.10
2022-08-21T13:09:52.310Z,25.13
2022-08-21T13:12:21.609Z,25.11
2022-08-21T13:14:50.346Z,25.02
2022-08-21T13:17:25.553Z,24.87
2022-08-21T13:20:21.612Z,24.73
2022-08-21T13:22:49.025Z,24.83
2022-08-21T13:25:18.902Z,24.97
2022-08-21T13:27:59.198Z,24.73
2022-08-21T13:30:26.880Z,24.51
2022-08-21T13:33:01.182Z,24.64
2022-08-21T13:35:38.184Z,24.65
2022-08-21T13:38:06.455Z,24.74
2022-08-21T13:40:43.238Z,24.65
2022-08-21T13:43:18.381Z,24.51
2022-08-21T13:45:51.965Z,24.56
2022-08-21T13:48:20.937Z,24.49
2022-08-21T13:50:48.933Z,24.78
2022-08-21T13:53:36.179Z,24.59
2022-08-21T13:56:05.657Z,24.40
2022-08-21T13:58:44.543Z,24.45
2022-08-21T14:01:33.622Z,24.55
2022-08-21T14:04:09.116Z,24.42
2022-08-21T14:06:39.699Z,24.42
2022-08-21T14:09:29.415Z,24.33
2022-08-21T14:11:57.997Z,24.31
2022-08-21T14:14:29.705Z,24.33
2022-08-21T14:17:13.539Z,23.96
2022-08-21T14:19:52.324Z,24.14
2022-08-21T14:22:47.091Z,24.20
2022-08-21T14:25:28.875Z,24.10
2022-08-21T14:27:57.681Z,24.08
2022-08-21T14:30:25.271Z,23.75
2022-08-21T14:32:53.025Z,23.94
2022-08-21T14:35:23.722Z,23.70
2022-08-21T14:37:53.223Z,24.09
2022-08-21T14:40:22.803Z,23.79
2022-08-21T14:42:53.130Z,23.91
2022-08-21T14:45:26.995Z,23.70
2022-08-21T14:47:56.251Z,23.97
2022-08-21T14:50:24.057Z,23.85
2022-08-21T14:52:59.183Z,23.91
2022-08-21T14:55:27.298Z,24.08
2022-08-21T14:57:55.940Z,24.00
2022-08-21T15:00:27.020Z,23.98
2022-08-21T15:03:03.992Z,23.89
2022-08-21T15:05:33.707Z,24.19
2022-08-21T15:08:02.426Z,24.07
2022-08-21T15:10:34.224Z,23.75
2022-08-21T15:13:02.353Z,23.84
2022-08-21T15:15:37.170Z,23.42
2022-08-21T15:18:04.619Z,23.65
2022-08-21T15:20:32.530Z,23.70
2022-08-21T15:23:00.004Z,23.53
2022-08-21T15:25:30.129Z,23.77
2022-08-21T15:27:58.005Z,23.63
2022-08-21T15:30:25.555Z,23.88
2022-08-21T15:32:53.090Z,23.85
2022-08-21T15:35:20.806Z,23.89
2022-08-21T15:37:48.234Z,24.17
2022-08-21T15:40:16.693Z,23.94
2022-08-21T15:42:44.826Z,23.68
2022-08-21T15:45:12.639Z,23.73
2022-08-21T15:47:46.503Z,24.07
2022-08-21T15:50:14.403Z,23.86
2022-08-21T15:52:44.913Z,23.92
2022-08-21T15:55:14.834Z,24.00
2022-08-21T15:57:57.433Z,23.67
2022-08-21T16:00:29.004Z,23.64
2022-08-21T16:02:58.779Z,23.38
2022-08-21T16:05:27.110Z,23.20
2022-08-21T16:07:54.568Z,23.57
2022-08-21T16:10:24.043Z,23.58
2022-08-21T16:13:00.558Z,23.49
2022-08-21T16:15:28.830Z,23.37
2022-08-21T16:17:56.506Z,23.56
2022-08-21T16:20:30.066Z,23.07
2022-08-21T16:22:59.302Z,23.62
2022-08-21T16:25:27.384Z,23.31
2022-08-21T16:27:59.613Z,22.85
2022-08-21T16:30:29.156Z,22.99
2022-08-21T16:32:56.981Z,23.10
2022-08-21T16:35:25.247Z,23.12
2022-08-21T16:37:53.577Z,23.27
2022-08-21T16:40:23.459Z,23.15
2022-08-21T16:42:51.292Z,23.21
2022-08-21T16:45:21.445Z,23.17
2022-08-21T16:47:49.887Z,23.54
2022-08-21T16:50:20.981Z,23.36
2022-08-21T16:52:48.932Z,23.10
2022-08-21T16:55:16.829Z,23.21
2022-08-21T16:57:44.258Z,23.37
2022-08-21T17:00:13.657Z,23.27
2022-08-21T17:02:44.965Z,23.38
2022-08-21T17:05:14.387Z,23.59
2022-08-21T17:07:43.086Z,23.34
2022-08-21T17:10:12.599Z,22.94
2022-08-21T17:12:43.043Z,23.05
2022-08-21T17:15:17.274Z,23.09
2022-08-21T17:17:50.353Z,22.97
2022-08-21T17:20:19.296Z,22.94
2022-08-21T17:22:46.772Z,22.55
2022-08-21T17:25:14.978Z,22.63
2022-08-21T17:27:44.211Z,23.10
2022-08-21T17:30:12.710Z,23.50
2022-08-21T17:32:41.413Z,23.07
2022-08-21T17:35:09.844Z,23.05
2022-08-21T17:37:37.841Z,22.58
2022-08-21T17:40:13.379Z,22.53
2022-08-21T17:42:42.586Z,22.38
2022-08-21T17:45:14.014Z,22.78
2022-08-21T17:47:41.688Z,22.54
2022-08-21T17:50:11.810Z,22.68
2022-08-21T17:52:40.137Z,22.66
2022-08-21T17:55:07.700Z,22.90
2022-08-21T17:57:35.474Z,22.47
2022-08-21T18:00:07.431Z,22.68
2022-08-21T18:02:40.265Z,22.51
2022-08-21T18:05:10.013Z,22.41
2022-08-21T18:07:38.292Z,22.34
2022-08-21T18:10:09.080Z,22.19
2022-08-21T18:12:38.831Z,22.55
2022-08-21T18:15:07.048Z,22.58
2022-08-21T18:17:35.459Z,22.40
2022-08-21T18:20:06.068Z,22.35
2022-08-21T18:22:33.891Z,22.23
2022-08-21T18:25:01.610Z,22.73
2022-08-21T18:27:30.058Z,22.71
2022-08-21T18:29:59.148Z,22.71
2022-08-21T18:32:31.736Z,22.28
2022-08-21T18:35:02.589Z,22.50
2022-08-21T18:37:31.273Z,22.45
2022-08-21T18:39:59.974Z,22.66
2022-08-21T18:42:29.870Z,22.57
2022-08-21T18:45:03.199Z,22.76
2022-08-21T18:47:37.480Z,22.34
2022-08-21T18:50:10.819Z,22.65
2022-08-21T18:52:52.506Z,22.27
2022-08-21T18:55:27.889Z,22.33
2022-08-21T18:57:57.585Z,22.20
2022-08-21T19:00:32.093Z,22.21
2022-08-21T19:03:05.857Z,22.24
2022-08-21T19:05:36.970Z,21.84
2022-08-21T19:08:09.347Z,21.97
2022-08-21T19:10:44.277Z,22.26
2022-08-21T19:13:17.152Z,22.24
2022-08-21T19:15:50.651Z,22.09
2022-08-21T19:18:27.932Z,22.01
2022-08-21T19:20:58.398Z,22.11
2022-08-21T19:23:30.408Z,21.66
2022-08-21T19:26:02.514Z,22.04
2022-08-21T19:28:44.743Z,21.59
2022-08-21T19:31:26.492Z,22.02
2022-08-21T19:34:06.050Z,22.09
2022-08-21T19:36:35.673Z,22.15
2022-08-21T19:39:08.157Z,22.05
2022-08-21T19:41:58.099Z,21.89
2022-08-21T19:44:28.651Z,22.14
2022-08-21T19:46:58.849Z,22.09
2022-08-21T19:49:29.867Z,22.00
2022-08-21T19:52:02.401Z,21.71
2022-08-21T19:54:44.163Z,22.01
2022-08-21T19:57:12.463Z,21.74
2022-08-21T19:59:41.772Z,21.51
2022-08-21T20:02:11.660Z,21.91
2022-08-21T20:07:28.959Z,22.11
2022-08-21T20:10:00.467Z,21.91
2022-08-21T20:12:28.816Z,22.11
2022-08-21T20:14:57.347Z,21.51
2022-08-21T20:17:26.114Z,21.18
2022-08-21T20:19:55.245Z,21.29
2022-08-21T20:22:25.264Z,21.44
2022-08-21T20:24:55.214Z,21.67
2022-08-21T20:27:24.854Z,21.15
2022-08-21T20:29:53.201Z,21.67
2022-08-21T20:32:22.420Z,21.15
2022-08-21T20:34:52.188Z,21.05
2022-08-21T20:37:36.401Z,20.84
2022-08-21T20:40:11.547Z,21.19
2022-08-21T20:42:44.705Z,20.83
2022-08-21T20:45:19.588Z,21.10
2022-08-21T20:47:48.382Z,21.44
2022-08-21T20:50:22.681Z,21.33
2022-08-21T20:52:52.720Z,21.22
2022-08-21T20:55:29.190Z,21.43
2022-08-21T20:58:03.246Z,21.46
2022-08-21T21:00:34.258Z,20.94
2022-08-21T21:03:17.621Z,20.70
2022-08-21T21:06:01.505Z,20.97
2022-08-21T21:08:53.810Z,21.34
2022-08-21T21:11:28.832Z,21.18
2022-08-21T21:14:02.780Z,21.16
2022-08-21T21:16:40.729Z,21.22
2022-08-21T21:19:20.839Z,21.04
2022-08-21T21:22:01.039Z,21.00
2022-08-21T21:24:36.722Z,20.80
2022-08-21T21:27:11.981Z,20.79
2022-08-21T21:29:46.111Z,20.95
2022-08-21T21:32:18.110Z,20.95
2022-08-21T21:34:46.866Z,20.96
2022-08-21T21:37:56.986Z,20.83
2022-08-21T21:40:50.059Z,20.95
2022-08-21T21:44:01.949Z,20.94
2022-08-21T21:46:54.453Z,20.62
2022-08-21T21:49:52.770Z,20.86
2022-08-21T21:52:45.890Z,21.00
2022-08-21T21:55:49.365Z,21.18
2022-08-21T21:58:57.320Z,21.35
2022-08-21T22:01:54.155Z,21.14
2022-08-21T22:04:52.536Z,20.92
2022-08-21T22:07:35.187Z,21.12
2022-08-21T22:10:19.755Z,21.10
2022-08-21T22:13:26.678Z,20.97
2022-08-21T22:15:55.585Z,20.81
2022-08-21T22:18:26.935Z,20.38
2022-08-21T22:21:10.582Z,20.58
2022-08-21T22:23:42.770Z,20.67
2022-08-21T22:26:15.084Z,21.02
2022-08-21T22:28:44.777Z,20.72
2022-08-21T22:31:19.760Z,20.44
2022-08-21T22:34:06.681Z,20.49
2022-08-21T22:36:51.635Z,20.65
2022-08-21T22:39:38.636Z,20.36
2022-08-21T22:42:27.481Z,20.46
2022-08-21T22:44:57.466Z,20.42
2022-08-21T22:47:38.567Z,20.37
2022-08-21T22:50:26.075Z,20.57
2022-08-21T22:52:57.039Z,20.50
2022-08-21T22:55:37.919Z,20.21
2022-08-21T22:58:21.371Z,20.57
2022-08-21T23:00:55.088Z,20.67
2022-08-21T23:03:27.151Z,20.10
2022-08-21T23:06:00.699Z,20.40
2022-08-21T23:11:42.943Z,20.35
2022-08-21T23:17:05.245Z,20.68
2022-08-21T23:19:50.523Z,20.50
2022-08-21T23:22:44.258Z,20.91
2022-08-21T23:25:31.965Z,20.50
2022-08-21T23:28:07.703Z,20.48
2022-08-21T23:30:52.769Z,20.27
2022-08-21T23:33:35.379Z,20.42
2022-08-21T23:36:51.757Z,20.42
2022-08-21T23:39:42.673Z,20.87
2022-08-21T23:42:17.954Z,20.51
2022-08-21T23:45:13.842Z,20.82
2022-08-21T23:47:51.040Z,21.05
2022-08-21T23:50:26.101Z,21.02
2022-08-21T23:52:56.825Z,21.05
2022-08-21T23:55:43.145Z,20.49
2022-08-21T23:58:29.630Z,20.78
